sensor_id;sensor_type;location;lat;lon;timestamp;pressure;altitude;pressure_sealevel;temperature;humidity
40708;BME280;26392;42.696;23.350;2023-02-19T00:01:10;95570.38;;;7.01;78.09
40708;BME280;26392;42.696;23.350;2023-02-19T00:03:36;95583.66;;;7.02;78.11
40708;BME280;26392;42.696;23.350;2023-02-19T00:06:07;95583.47;;;7.04;78.36
40708;BME280;26392;42.696;23.350;2023-02-19T00:08:33;95574.19;;;6.93;79.02
40708;BME280;26392;42.696;23.350;2023-02-19T00:11:09;95574.81;;;6.95;79.15
40708;BME280;26392;42.696;23.350;2023-02-19T00:13:37;95556.16;;;6.87;80.25
40708;BME280;26392;42.696;23.350;2023-02-19T00:16:08;95552.00;;;6.84;80.24
40708;BME280;26392;42.696;23.350;2023-02-19T00:18:34;95574.34;;;6.80;80.60
40708;BME280;26392;42.696;23.350;2023-02-19T00:21:01;95567.28;;;6.79;81.44
40708;BME280;26392;42.696;23.350;2023-02-19T00:23:27;95575.59;;;6.77;81.48
40708;BME280;26392;42.696;23.350;2023-02-19T00:25:53;95555.84;;;6.77;81.80
40708;BME280;26392;42.696;23.350;2023-02-19T00:28:19;95555.16;;;6.63;82.99
40708;BME280;26392;42.696;23.350;2023-02-19T00:30:44;95563.97;;;6.58;83.65
40708;BME280;26392;42.696;23.350;2023-02-19T00:33:09;95556.72;;;6.52;84.29
40708;BME280;26392;42.696;23.350;2023-02-19T00:35:35;95561.31;;;6.52;84.64
40708;BME280;26392;42.696;23.350;2023-02-19T00:38:01;95542.16;;;6.53;84.51
40708;BME280;26392;42.696;23.350;2023-02-19T00:40:26;95556.94;;;6.50;84.64
40708;BME280;26392;42.696;23.350;2023-02-19T00:42:52;95544.41;;;6.56;84.05
40708;BME280;26392;42.696;23.350;2023-02-19T00:45:17;95544.53;;;6.43;85.04
40708;BME280;26392;42.696;23.350;2023-02-19T00:47:43;95537.84;;;6.45;85.24
40708;BME280;26392;42.696;23.350;2023-02-19T00:50:09;95529.44;;;6.54;84.66
40708;BME280;26392;42.696;23.350;2023-02-19T00:52:34;95524.50;;;6.44;85.86
40708;BME280;26392;42.696;23.350;2023-02-19T00:55:00;95531.28;;;6.35;86.88
40708;BME280;26392;42.696;23.350;2023-02-19T00:57:26;95527.50;;;6.36;87.02
40708;BME280;26392;42.696;23.350;2023-02-19T00:59:51;95515.50;;;6.32;87.02
40708;BME280;26392;42.696;23.350;2023-02-19T01:02:17;95523.16;;;6.35;87.35
40708;BME280;26392;42.696;23.350;2023-02-19T01:04:42;95538.78;;;6.33;87.17
40708;BME280;26392;42.696;23.350;2023-02-19T01:07:08;95536.47;;;6.36;87.03
40708;BME280;26392;42.696;23.350;2023-02-19T01:09:33;95542.75;;;6.30;86.99
40708;BME280;26392;42.696;23.350;2023-02-19T01:11:59;95546.00;;;6.20;87.96
40708;BME280;26392;42.696;23.350;2023-02-19T01:14:24;95539.41;;;6.10;88.80
40708;BME280;26392;42.696;23.350;2023-02-19T01:16:50;95543.19;;;6.09;89.72
40708;BME280;26392;42.696;23.350;2023-02-19T01:19:15;95537.59;;;6.03;90.20
40708;BME280;26392;42.696;23.350;2023-02-19T01:21:41;95528.22;;;6.06;89.66
40708;BME280;26392;42.696;23.350;2023-02-19T01:24:09;95521.75;;;6.07;89.42
40708;BME280;26392;42.696;23.350;2023-02-19T01:26:35;95530.56;;;6.02;89.22
40708;BME280;26392;42.696;23.350;2023-02-19T01:29:01;95532.47;;;5.95;89.55
40708;BME280;26392;42.696;23.350;2023-02-19T01:31:27;95549.09;;;5.92;89.55
40708;BME280;26392;42.696;23.350;2023-02-19T01:33:55;95542.50;;;5.88;89.76
40708;BME280;26392;42.696;23.350;2023-02-19T01:36:22;95542.50;;;5.88;90.89
40708;BME280;26392;42.696;23.350;2023-02-19T01:38:48;95536.47;;;5.86;91.44
40708;BME280;26392;42.696;23.350;2023-02-19T01:41:19;95552.47;;;5.88;91.83
40708;BME280;26392;42.696;23.350;2023-02-19T01:46:40;95567.69;;;5.82;92.46
40708;BME280;26392;42.696;23.350;2023-02-19T01:49:12;95568.31;;;5.84;92.29
40708;BME280;26392;42.696;23.350;2023-02-19T01:51:43;95571.66;;;5.79;92.64
40708;BME280;26392;42.696;23.350;2023-02-19T01:54:12;95575.47;;;5.72;93.41
40708;BME280;26392;42.696;23.350;2023-02-19T01:56:41;95565.91;;;5.69;94.25
40708;BME280;26392;42.696;23.350;2023-02-19T01:59:08;95573.84;;;5.64;94.67
40708;BME280;26392;42.696;23.350;2023-02-19T02:01:36;95559.34;;;5.58;95.05
40708;BME280;26392;42.696;23.350;2023-02-19T02:04:02;95566.81;;;5.63;95.17
40708;BME280;26392;42.696;23.350;2023-02-19T02:06:33;95569.53;;;5.56;95.47
40708;BME280;26392;42.696;23.350;2023-02-19T02:09:00;95574.94;;;5.56;95.87
40708;BME280;26392;42.696;23.350;2023-02-19T02:11:50;95567.81;;;5.62;95.04
40708;BME280;26392;42.696;23.350;2023-02-19T02:14:23;95567.63;;;5.64;94.58
40708;BME280;26392;42.696;23.350;2023-02-19T02:23:08;95566.31;;;5.41;95.57
40708;BME280;26392;42.696;23.350;2023-02-19T02:25:55;95571.72;;;5.41;95.83
40708;BME280;26392;42.696;23.350;2023-02-19T02:28:56;95571.66;;;5.48;95.63
40708;BME280;26392;42.696;23.350;2023-02-19T02:31:42;95564.44;;;5.42;96.47
40708;BME280;26392;42.696;23.350;2023-02-19T02:34:14;95565.31;;;5.35;97.17
40708;BME280;26392;42.696;23.350;2023-02-19T02:36:44;95567.56;;;5.38;96.82
40708;BME280;26392;42.696;23.350;2023-02-19T02:39:19;95563.84;;;5.33;97.21
40708;BME280;26392;42.696;23.350;2023-02-19T02:41:54;95565.69;;;5.39;96.62
40708;BME280;26392;42.696;23.350;2023-02-19T02:44:39;95556.38;;;5.35;95.87
40708;BME280;26392;42.696;23.350;2023-02-19T02:47:06;95572.72;;;5.47;94.80
40708;BME280;26392;42.696;23.350;2023-02-19T02:49:52;95555.44;;;5.48;94.84
40708;BME280;26392;42.696;23.350;2023-02-19T02:52:29;95565.63;;;5.46;95.45
40708;BME280;26392;42.696;23.350;2023-02-19T02:55:15;95569.19;;;5.46;95.70
40708;BME280;26392;42.696;23.350;2023-02-19T02:57:40;95568.97;;;5.48;95.79
40708;BME280;26392;42.696;23.350;2023-02-19T03:00:06;95571.72;;;5.41;96.41
40708;BME280;26392;42.696;23.350;2023-02-19T03:02:32;95566.69;;;5.45;96.65
40708;BME280;26392;42.696;23.350;2023-02-19T03:05:13;95566.50;;;5.39;96.92
40708;BME280;26392;42.696;23.350;2023-02-19T03:08:11;95578.13;;;5.40;97.22
40708;BME280;26392;42.696;23.350;2023-02-19T03:11:03;95580.28;;;5.31;97.81
40708;BME280;26392;42.696;23.350;2023-02-19T03:13:50;95579.81;;;5.41;97.52
40708;BME280;26392;42.696;23.350;2023-02-19T03:16:37;95578.38;;;5.38;97.67
40708;BME280;26392;42.696;23.350;2023-02-19T03:19:26;95591.88;;;5.38;97.69
40708;BME280;26392;42.696;23.350;2023-02-19T03:22:23;95601.63;;;5.46;96.27
40708;BME280;26392;42.696;23.350;2023-02-19T03:24:59;95597.28;;;5.38;96.61
40708;BME280;26392;42.696;23.350;2023-02-19T03:27:45;95600.63;;;5.34;97.04
40708;BME280;26392;42.696;23.350;2023-02-19T03:30:19;95591.50;;;5.35;97.29
40708;BME280;26392;42.696;23.350;2023-02-19T03:35:16;95609.75;;;5.39;96.70
40708;BME280;26392;42.696;23.350;2023-02-19T03:38:06;95611.41;;;5.41;96.43
40708;BME280;26392;42.696;23.350;2023-02-19T03:40:40;95612.88;;;5.36;96.63
40708;BME280;26392;42.696;23.350;2023-02-19T03:43:16;95622.38;;;5.46;95.89
40708;BME280;26392;42.696;23.350;2023-02-19T03:48:35;95619.72;;;5.39;96.26
40708;BME280;26392;42.696;23.350;2023-02-19T03:51:31;95620.78;;;5.38;96.85
40708;BME280;26392;42.696;23.350;2023-02-19T03:56:59;95629.38;;;5.22;97.86
40708;BME280;26392;42.696;23.350;2023-02-19T04:02:26;95627.09;;;5.19;98.74
40708;BME280;26392;42.696;23.350;2023-02-19T04:07:27;95627.69;;;5.27;98.63
40708;BME280;26392;42.696;23.350;2023-02-19T04:09:55;95628.31;;;5.23;98.86
40708;BME280;26392;42.696;23.350;2023-02-19T04:12:21;95628.34;;;5.09;99.95
40708;BME280;26392;42.696;23.350;2023-02-19T04:15:01;95633.53;;;5.18;99.58
40708;BME280;26392;42.696;23.350;2023-02-19T04:17:36;95632.50;;;5.12;99.99
40708;BME280;26392;42.696;23.350;2023-02-19T04:20:07;95640.03;;;5.03;100.00
40708;BME280;26392;42.696;23.350;2023-02-19T04:22:35;95638.78;;;4.99;100.00
40708;BME280;26392;42.696;23.350;2023-02-19T04:25:01;95633.59;;;5.04;100.00
40708;BME280;26392;42.696;23.350;2023-02-19T04:27:27;95632.53;;;5.05;100.00
40708;BME280;26392;42.696;23.350;2023-02-19T04:29:52;95632.75;;;5.04;100.00
40708;BME280;26392;42.696;23.350;2023-02-19T04:32:18;95637.31;;;5.03;100.00
40708;BME280;26392;42.696;23.350;2023-02-19T04:34:44;95639.22;;;4.96;100.00
40708;BME280;26392;42.696;23.350;2023-02-19T04:37:09;95647.13;;;4.91;100.00
40708;BME280;26392;42.696;23.350;2023-02-19T04:39:35;95627.81;;;4.81;100.00
40708;BME280;26392;42.696;23.350;2023-02-19T04:42:00;95637.59;;;4.82;100.00
40708;BME280;26392;42.696;23.350;2023-02-19T04:44:26;95646.94;;;4.86;100.00
40708;BME280;26392;42.696;23.350;2023-02-19T04:46:52;95647.34;;;4.83;100.00
40708;BME280;26392;42.696;23.350;2023-02-19T04:49:17;95647.34;;;4.83;100.00
40708;BME280;26392;42.696;23.350;2023-02-19T04:51:42;95644.44;;;4.78;100.00
40708;BME280;26392;42.696;23.350;2023-02-19T04:54:08;95644.44;;;4.78;100.00
40708;BME280;26392;42.696;23.350;2023-02-19T04:56:33;95641.94;;;4.83;100.00
40708;BME280;26392;42.696;23.350;2023-02-19T04:58:59;95655.03;;;4.86;100.00
40708;BME280;26392;42.696;23.350;2023-02-19T05:01:24;95651.69;;;4.84;100.00
40708;BME280;26392;42.696;23.350;2023-02-19T05:03:50;95651.69;;;4.84;100.00
40708;BME280;26392;42.696;23.350;2023-02-19T05:06:15;95663.75;;;4.81;100.00
40708;BME280;26392;42.696;23.350;2023-02-19T05:08:41;95657.72;;;4.86;100.00
40708;BME280;26392;42.696;23.350;2023-02-19T05:11:08;95655.19;;;5.04;100.00
40708;BME280;26392;42.696;23.350;2023-02-19T05:13:35;95660.19;;;5.07;100.00
40708;BME280;26392;42.696;23.350;2023-02-19T05:16:05;95657.03;;;5.10;100.00
40708;BME280;26392;42.696;23.350;2023-02-19T05:18:32;95660.34;;;5.19;100.00
40708;BME280;26392;42.696;23.350;2023-02-19T05:20:59;95662.19;;;5.25;100.00
40708;BME280;26392;42.696;23.350;2023-02-19T05:23:26;95662.56;;;5.35;100.00
40708;BME280;26392;42.696;23.350;2023-02-19T05:25:51;95672.72;;;5.47;100.00
40708;BME280;26392;42.696;23.350;2023-02-19T05:28:17;95661.66;;;5.55;100.00
40708;BME280;26392;42.696;23.350;2023-02-19T05:33:08;95672.84;;;5.58;98.21
40708;BME280;26392;42.696;23.350;2023-02-19T05:35:42;95685.50;;;5.65;97.87
40708;BME280;26392;42.696;23.350;2023-02-19T05:38:08;95680.00;;;5.84;96.61
40708;BME280;26392;42.696;23.350;2023-02-19T05:40:33;95690.03;;;5.77;96.39
40708;BME280;26392;42.696;23.350;2023-02-19T05:42:59;95687.72;;;5.81;96.63
40708;BME280;26392;42.696;23.350;2023-02-19T05:45:25;95690.41;;;5.94;95.37
40708;BME280;26392;42.696;23.350;2023-02-19T05:47:50;95679.19;;;5.84;96.50
40708;BME280;26392;42.696;23.350;2023-02-19T05:50:15;95690.56;;;5.93;95.13
40708;BME280;26392;42.696;23.350;2023-02-19T05:52:41;95685.75;;;6.01;93.65
40708;BME280;26392;42.696;23.350;2023-02-19T05:55:07;95692.44;;;5.92;93.92
40708;BME280;26392;42.696;23.350;2023-02-19T05:57:39;95693.50;;;5.98;94.37
40708;BME280;26392;42.696;23.350;2023-02-19T06:00:04;95702.97;;;6.14;93.21
40708;BME280;26392;42.696;23.350;2023-02-19T06:02:30;95692.91;;;6.21;92.00
40708;BME280;26392;42.696;23.350;2023-02-19T06:04:55;95697.34;;;6.40;91.18
40708;BME280;26392;42.696;23.350;2023-02-19T06:07:20;95709.31;;;6.58;89.49
40708;BME280;26392;42.696;23.350;2023-02-19T06:09:49;95705.88;;;6.69;88.51
40708;BME280;26392;42.696;23.350;2023-02-19T06:12:15;95716.16;;;6.85;87.71
40708;BME280;26392;42.696;23.350;2023-02-19T06:14:40;95723.09;;;7.00;85.71
40708;BME280;26392;42.696;23.350;2023-02-19T06:17:06;95721.72;;;7.15;85.58
40708;BME280;26392;42.696;23.350;2023-02-19T06:19:31;95727.06;;;7.22;84.22
40708;BME280;26392;42.696;23.350;2023-02-19T06:21:56;95720.91;;;7.33;83.04
40708;BME280;26392;42.696;23.350;2023-02-19T06:24:22;95720.91;;;7.52;81.51
40708;BME280;26392;42.696;23.350;2023-02-19T06:26:48;95721.75;;;7.71;78.96
40708;BME280;26392;42.696;23.350;2023-02-19T06:29:13;95717.44;;;7.81;77.49
40708;BME280;26392;42.696;23.350;2023-02-19T06:31:38;95716.75;;;7.86;76.07
40708;BME280;26392;42.696;23.350;2023-02-19T06:34:04;95725.19;;;7.96;76.00
40708;BME280;26392;42.696;23.350;2023-02-19T06:36:30;95718.63;;;8.04;74.59
40708;BME280;26392;42.696;23.350;2023-02-19T06:38:59;95726.34;;;8.19;72.75
40708;BME280;26392;42.696;23.350;2023-02-19T06:41:24;95722.94;;;8.23;72.46
40708;BME280;26392;42.696;23.350;2023-02-19T06:43:49;95725.78;;;8.28;71.93
40708;BME280;26392;42.696;23.350;2023-02-19T06:46:15;95729.53;;;8.46;71.18
40708;BME280;26392;42.696;23.350;2023-02-19T06:48:41;95723.66;;;8.49;70.05
40708;BME280;26392;42.696;23.350;2023-02-19T06:51:10;95725.91;;;8.52;70.54
40708;BME280;26392;42.696;23.350;2023-02-19T06:53:36;95733.00;;;8.65;68.61
40708;BME280;26392;42.696;23.350;2023-02-19T06:56:05;95733.16;;;8.82;67.70
40708;BME280;26392;42.696;23.350;2023-02-19T06:58:32;95730.22;;;8.83;66.56
40708;BME280;26392;42.696;23.350;2023-02-19T07:00:57;95716.75;;;8.88;66.15
40708;BME280;26392;42.696;23.350;2023-02-19T07:03:23;95736.03;;;9.10;64.76
40708;BME280;26392;42.696;23.350;2023-02-19T07:05:50;95746.78;;;9.29;64.52
40708;BME280;26392;42.696;23.350;2023-02-19T07:08:15;95745.84;;;9.35;64.10
40708;BME280;26392;42.696;23.350;2023-02-19T07:10:42;95729.75;;;9.45;63.76
40708;BME280;26392;42.696;23.350;2023-02-19T07:13:07;95743.59;;;9.55;63.34
40708;BME280;26392;42.696;23.350;2023-02-19T07:15:33;95741.69;;;9.68;63.22
40708;BME280;26392;42.696;23.350;2023-02-19T07:17:58;95743.78;;;9.77;62.83
40708;BME280;26392;42.696;23.350;2023-02-19T07:20:23;95737.84;;;9.92;62.52
40708;BME280;26392;42.696;23.350;2023-02-19T07:22:49;95725.75;;;10.00;61.66
40708;BME280;26392;42.696;23.350;2023-02-19T07:25:15;95725.28;;;10.03;61.53
40708;BME280;26392;42.696;23.350;2023-02-19T07:27:40;95713.38;;;10.21;60.96
40708;BME280;26392;42.696;23.350;2023-02-19T07:30:06;95710.38;;;10.34;60.36
40708;BME280;26392;42.696;23.350;2023-02-19T07:32:31;95701.41;;;10.34;60.05
40708;BME280;26392;42.696;23.350;2023-02-19T07:34:57;95705.69;;;10.46;60.17
40708;BME280;26392;42.696;23.350;2023-02-19T07:37:22;95707.31;;;10.59;59.44
40708;BME280;26392;42.696;23.350;2023-02-19T07:39:48;95710.28;;;10.74;59.36
40708;BME280;26392;42.696;23.350;2023-02-19T07:42:14;95711.59;;;10.89;58.92
40708;BME280;26392;42.696;23.350;2023-02-19T07:44:39;95707.97;;;11.00;59.03
40708;BME280;26392;42.696;23.350;2023-02-19T07:47:04;95698.06;;;11.11;57.79
40708;BME280;26392;42.696;23.350;2023-02-19T07:49:30;95704.97;;;11.35;56.84
40708;BME280;26392;42.696;23.350;2023-02-19T07:51:56;95699.50;;;11.52;56.27
40708;BME280;26392;42.696;23.350;2023-02-19T07:54:22;95700.69;;;11.61;55.71
40708;BME280;26392;42.696;23.350;2023-02-19T07:56:47;95707.06;;;11.67;55.58
40708;BME280;26392;42.696;23.350;2023-02-19T07:59:13;95704.16;;;11.74;55.11
40708;BME280;26392;42.696;23.350;2023-02-19T08:01:39;95703.84;;;11.92;54.16
40708;BME280;26392;42.696;23.350;2023-02-19T08:04:23;95706.72;;;12.02;53.13
40708;BME280;26392;42.696;23.350;2023-02-19T08:06:49;95701.56;;;12.06;53.14
40708;BME280;26392;42.696;23.350;2023-02-19T08:09:14;95698.47;;;12.19;52.05
40708;BME280;26392;42.696;23.350;2023-02-19T08:11:40;95702.38;;;12.28;52.16
40708;BME280;26392;42.696;23.350;2023-02-19T08:14:27;95703.91;;;12.41;51.85
40708;BME280;26392;42.696;23.350;2023-02-19T08:16:53;95700.13;;;12.47;52.00
40708;BME280;26392;42.696;23.350;2023-02-19T08:19:19;95699.03;;;12.48;51.15
40708;BME280;26392;42.696;23.350;2023-02-19T08:21:45;95703.50;;;12.60;51.22
40708;BME280;26392;42.696;23.350;2023-02-19T08:24:10;95696.53;;;12.69;50.26
40708;BME280;26392;42.696;23.350;2023-02-19T08:26:36;95690.72;;;12.65;50.42
40708;BME280;26392;42.696;23.350;2023-02-19T08:29:02;95682.00;;;12.68;50.11
40708;BME280;26392;42.696;23.350;2023-02-19T08:31:28;95703.88;;;12.68;50.18
40708;BME280;26392;42.696;23.350;2023-02-19T08:33:53;95700.38;;;12.73;50.29
40708;BME280;26392;42.696;23.350;2023-02-19T08:36:19;95705.06;;;12.77;50.25
40708;BME280;26392;42.696;23.350;2023-02-19T08:38:44;95702.84;;;12.74;50.43
40708;BME280;26392;42.696;23.350;2023-02-19T08:41:11;95696.34;;;12.81;50.20
40708;BME280;26392;42.696;23.350;2023-02-19T08:43:37;95684.31;;;12.82;50.56
40708;BME280;26392;42.696;23.350;2023-02-19T08:46:03;95688.22;;;12.91;50.28
40708;BME280;26392;42.696;23.350;2023-02-19T08:48:30;95679.81;;;12.97;50.26
40708;BME280;26392;42.696;23.350;2023-02-19T08:50:57;95687.25;;;13.07;50.18
40708;BME280;26392;42.696;23.350;2023-02-19T08:53:24;95676.84;;;13.04;50.27
40708;BME280;26392;42.696;23.350;2023-02-19T08:55:50;95673.09;;;13.15;50.14
40708;BME280;26392;42.696;23.350;2023-02-19T08:58:15;95671.03;;;13.28;49.65
40708;BME280;26392;42.696;23.350;2023-02-19T09:00:41;95671.91;;;13.33;49.62
40708;BME280;26392;42.696;23.350;2023-02-19T09:03:06;95667.03;;;13.46;49.49
40708;BME280;26392;42.696;23.350;2023-02-19T09:05:32;95664.38;;;13.61;49.12
40708;BME280;26392;42.696;23.350;2023-02-19T09:07:57;95667.47;;;13.70;48.79
40708;BME280;26392;42.696;23.350;2023-02-19T09:10:22;95645.56;;;13.70;48.78
40708;BME280;26392;42.696;23.350;2023-02-19T09:12:48;95651.69;;;13.92;48.43
40708;BME280;26392;42.696;23.350;2023-02-19T09:15:13;95648.16;;;14.07;48.10
40708;BME280;26392;42.696;23.350;2023-02-19T09:17:39;95640.78;;;14.18;48.20
40708;BME280;26392;42.696;23.350;2023-02-19T09:20:04;95632.63;;;14.43;48.02
40708;BME280;26392;42.696;23.350;2023-02-19T09:22:30;95635.16;;;14.60;52.01
40708;BME280;26392;42.696;23.350;2023-02-19T09:24:55;95638.72;;;14.71;49.09
40708;BME280;26392;42.696;23.350;2023-02-19T09:27:20;95645.88;;;14.87;47.80
40708;BME280;26392;42.696;23.350;2023-02-19T09:29:46;95638.16;;;14.99;48.20
40708;BME280;26392;42.696;23.350;2023-02-19T09:32:12;95642.84;;;15.04;47.03
40708;BME280;26392;42.696;23.350;2023-02-19T09:34:38;95629.13;;;14.94;47.17
40708;BME280;26392;42.696;23.350;2023-02-19T09:37:04;95632.69;;;14.94;47.31
40708;BME280;26392;42.696;23.350;2023-02-19T09:39:30;95624.19;;;14.81;47.53
40708;BME280;26392;42.696;23.350;2023-02-19T09:42:17;95633.78;;;14.88;47.43
40708;BME280;26392;42.696;23.350;2023-02-19T09:44:46;95621.72;;;14.94;46.88
40708;BME280;26392;42.696;23.350;2023-02-19T09:47:18;95628.31;;;14.88;47.19
40708;BME280;26392;42.696;23.350;2023-02-19T09:49:50;95629.66;;;15.06;46.77
40708;BME280;26392;42.696;23.350;2023-02-19T09:54:52;95631.59;;;15.11;46.60
40708;BME280;26392;42.696;23.350;2023-02-19T09:57:23;95621.97;;;15.24;46.61
40708;BME280;26392;42.696;23.350;2023-02-19T09:59:52;95599.41;;;15.47;45.83
40708;BME280;26392;42.696;23.350;2023-02-19T10:02:20;95605.38;;;15.59;45.64
40708;BME280;26392;42.696;23.350;2023-02-19T10:04:47;95593.59;;;15.59;44.64
40708;BME280;26392;42.696;23.350;2023-02-19T10:07:24;95584.78;;;15.57;45.28
40708;BME280;26392;42.696;23.350;2023-02-19T10:09:54;95577.59;;;15.76;44.86
40708;BME280;26392;42.696;23.350;2023-02-19T10:12:27;95568.28;;;15.82;44.05
40708;BME280;26392;42.696;23.350;2023-02-19T10:14:59;95572.63;;;15.88;44.09
40708;BME280;26392;42.696;23.350;2023-02-19T10:17:29;95557.31;;;15.72;43.79
40708;BME280;26392;42.696;23.350;2023-02-19T10:19:55;95553.75;;;15.72;43.77
40708;BME280;26392;42.696;23.350;2023-02-19T10:22:21;95552.03;;;15.86;43.80
40708;BME280;26392;42.696;23.350;2023-02-19T10:24:52;95542.50;;;15.68;43.10
40708;BME280;26392;42.696;23.350;2023-02-19T10:27:18;95543.03;;;15.65;43.09
40708;BME280;26392;42.696;23.350;2023-02-19T10:29:46;95531.25;;;15.54;43.08
40708;BME280;26392;42.696;23.350;2023-02-19T10:32:16;95533.47;;;15.52;43.16
40708;BME280;26392;42.696;23.350;2023-02-19T10:34:45;95530.41;;;15.64;43.22
40708;BME280;26392;42.696;23.350;2023-02-19T10:37:14;95512.56;;;15.72;42.79
40708;BME280;26392;42.696;23.350;2023-02-19T10:39:45;95511.72;;;15.66;42.35
40708;BME280;26392;42.696;23.350;2023-02-19T10:42:30;95510.69;;;15.52;42.72
40708;BME280;26392;42.696;23.350;2023-02-19T10:44:58;95500.47;;;15.62;42.87
40708;BME280;26392;42.696;23.350;2023-02-19T10:47:27;95486.69;;;15.78;42.70
40708;BME280;26392;42.696;23.350;2023-02-19T10:49:56;95482.00;;;15.78;42.12
40708;BME280;26392;42.696;23.350;2023-02-19T10:52:26;95490.19;;;15.94;42.15
40708;BME280;26392;42.696;23.350;2023-02-19T10:54:57;95488.81;;;15.91;42.13
40708;BME280;26392;42.696;23.350;2023-02-19T10:57:37;95479.59;;;16.11;41.74
40708;BME280;26392;42.696;23.350;2023-02-19T11:00:25;95475.16;;;16.15;41.76
40708;BME280;26392;42.696;23.350;2023-02-19T11:03:21;95468.63;;;16.11;41.39
40708;BME280;26392;42.696;23.350;2023-02-19T11:06:02;95460.41;;;16.06;41.41
40708;BME280;26392;42.696;23.350;2023-02-19T11:08:29;95453.00;;;16.01;41.43
40708;BME280;26392;42.696;23.350;2023-02-19T11:10:56;95446.91;;;16.09;41.54
40708;BME280;26392;42.696;23.350;2023-02-19T11:13:29;95445.91;;;16.29;41.10
40708;BME280;26392;42.696;23.350;2023-02-19T11:15:57;95447.00;;;16.33;40.98
40708;BME280;26392;42.696;23.350;2023-02-19T11:18:26;95442.56;;;16.32;40.94
40708;BME280;26392;42.696;23.350;2023-02-19T11:20:55;95421.19;;;16.24;40.88
40708;BME280;26392;42.696;23.350;2023-02-19T11:23:33;95417.78;;;16.38;40.79
40708;BME280;26392;42.696;23.350;2023-02-19T11:26:03;95419.88;;;16.51;40.83
40708;BME280;26392;42.696;23.350;2023-02-19T11:28:33;95414.50;;;16.65;40.25
40708;BME280;26392;42.696;23.350;2023-02-19T11:31:34;95414.31;;;16.56;40.48
40708;BME280;26392;42.696;23.350;2023-02-19T11:34:24;95401.38;;;16.56;40.25
40708;BME280;26392;42.696;23.350;2023-02-19T11:39:38;95396.44;;;16.59;39.99
40708;BME280;26392;42.696;23.350;2023-02-19T11:45:02;95387.78;;;16.70;39.89
40708;BME280;26392;42.696;23.350;2023-02-19T12:01:26;95353.28;;;17.02;38.28
40708;BME280;26392;42.696;23.350;2023-02-19T12:20:46;95327.56;;;17.68;36.64
40708;BME280;26392;42.696;23.350;2023-02-19T12:23:58;95331.06;;;17.74;35.89
40708;BME280;26392;42.696;23.350;2023-02-19T12:32:18;95309.50;;;17.95;35.99
40708;BME280;26392;42.696;23.350;2023-02-19T12:34:51;95304.75;;;18.15;35.69
40708;BME280;26392;42.696;23.350;2023-02-19T12:37:28;95299.97;;;18.20;35.30
40708;BME280;26392;42.696;23.350;2023-02-19T12:42:58;95289.78;;;18.21;34.67
40708;BME280;26392;42.696;23.350;2023-02-19T12:45:31;95280.09;;;18.23;34.38
40708;BME280;26392;42.696;23.350;2023-02-19T12:54:24;95267.41;;;18.36;34.18
40708;BME280;26392;42.696;23.350;2023-02-19T12:57:04;95252.81;;;18.22;34.18
40708;BME280;26392;42.696;23.350;2023-02-19T13:02:17;95233.94;;;18.29;34.20
40708;BME280;26392;42.696;23.350;2023-02-19T13:07:36;95231.16;;;18.29;34.31
40708;BME280;26392;42.696;23.350;2023-02-19T13:12:41;95230.03;;;18.44;34.03
40708;BME280;26392;42.696;23.350;2023-02-19T13:15:15;95216.75;;;18.46;34.19
40708;BME280;26392;42.696;23.350;2023-02-19T13:17:48;95217.75;;;18.50;34.84
40708;BME280;26392;42.696;23.350;2023-02-19T13:22:54;95215.81;;;18.64;34.71
40708;BME280;26392;42.696;23.350;2023-02-19T13:34:18;95188.53;;;18.63;34.17
40708;BME280;26392;42.696;23.350;2023-02-19T13:36:48;95188.09;;;18.83;33.71
40708;BME280;26392;42.696;23.350;2023-02-19T13:39:15;95190.44;;;18.90;33.85
40708;BME280;26392;42.696;23.350;2023-02-19T13:41:48;95184.50;;;18.96;33.90
40708;BME280;26392;42.696;23.350;2023-02-19T13:44:18;95182.75;;;19.00;33.19
40708;BME280;26392;42.696;23.350;2023-02-19T13:46:46;95172.44;;;18.92;32.94
40708;BME280;26392;42.696;23.350;2023-02-19T13:54:31;95171.91;;;18.90;34.43
40708;BME280;26392;42.696;23.350;2023-02-19T13:59:48;95170.84;;;18.77;34.90
40708;BME280;26392;42.696;23.350;2023-02-19T14:08:06;95171.75;;;18.59;35.16
40708;BME280;26392;42.696;23.350;2023-02-19T14:10:11;95162.56;;;18.64;34.68
40708;BME280;26392;42.696;23.350;2023-02-19T14:12:37;95165.88;;;18.52;35.32
40708;BME280;26392;42.696;23.350;2023-02-19T14:15:42;95162.41;;;18.32;35.63
40708;BME280;26392;42.696;23.350;2023-02-19T14:18:39;95148.63;;;18.19;36.02
40708;BME280;26392;42.696;23.350;2023-02-19T14:21:14;95158.34;;;18.16;35.92
40708;BME280;26392;42.696;23.350;2023-02-19T14:23:40;95151.41;;;18.19;35.96
40708;BME280;26392;42.696;23.350;2023-02-19T14:26:05;95150.69;;;18.27;35.76
40708;BME280;26392;42.696;23.350;2023-02-19T14:28:43;95146.66;;;18.47;35.54
40708;BME280;26392;42.696;23.350;2023-02-19T14:31:18;95145.13;;;18.54;35.47
40708;BME280;26392;42.696;23.350;2023-02-19T14:34:32;95142.19;;;18.73;35.06
40708;BME280;26392;42.696;23.350;2023-02-19T14:36:42;95140.34;;;18.96;34.92
40708;BME280;26392;42.696;23.350;2023-02-19T14:39:14;95141.84;;;19.03;34.45
40708;BME280;26392;42.696;23.350;2023-02-19T14:41:44;95130.22;;;19.14;34.18
40708;BME280;26392;42.696;23.350;2023-02-19T14:44:24;95131.44;;;19.22;34.14
40708;BME280;26392;42.696;23.350;2023-02-19T14:46:59;95131.94;;;19.24;34.43
40708;BME280;26392;42.696;23.350;2023-02-19T14:49:54;95121.25;;;19.31;33.57
40708;BME280;26392;42.696;23.350;2023-02-19T14:52:40;95124.63;;;19.28;33.29
40708;BME280;26392;42.696;23.350;2023-02-19T14:55:15;95116.94;;;19.16;33.20
40708;BME280;26392;42.696;23.350;2023-02-19T14:57:44;95126.88;;;19.26;33.26
40708;BME280;26392;42.696;23.350;2023-02-19T15:02:50;95119.06;;;19.19;35.04
40708;BME280;26392;42.696;23.350;2023-02-19T15:05:17;95118.66;;;18.90;35.97